Matamoros, México

1:34 PM CDT en Septiembre 01, 2014 (GMT -0500)
Brownsville-South Padre I International | Change Station
CLOSE
Current Station
Aeropuerto
Location: Brownsville,
Altura: 20 ft
Estaciones meteorológicas cercanas

Alt 20 ft 25.91 °N, 97.42 °W | Updated 41 minutes ago

Scattered Clouds
Nubes dispersas
92 ° F
Sensación térmica 106 ° F
N
15
Viento Variable Viento desde SE

Hoy
Alta -- | Baja -- ° F
--% Posibilidad de precipitaciones
Ayer
Alta -- | Baja -- ° F
Precip. -- pul
7:10 AM 7:49 PM
Creciente, 43% visible
Presión 29.90 pul
Visibilidad 10.0 Millas
Nubes Nubes dispersas 3200 ft
Nubes dispersas 7000 ft
Índice de calor 106 ° F
Punto de rocío 77 ° F
Humedad 62%
Precipitaciones 0.00 pul
Espesor de la nieve No disponible.
UV 9 de una escala de 12
Polen No disponible.
Calidad del aire No disponible.
Flu Activity No disponible.
METAR KBRO 011753Z 13013KT 10SM SCT032 SCT070 33/25 A2991 RMK AO2 SLP125 60000 T03330250 10339 20261 58002 $

More Conditions Fewer Conditions

Presión 29.90 pul
Visibilidad 10.0 Millas
Nubes Nubes dispersas 3200 ft
Nubes dispersas 7000 ft
Índice de calor 106 ° F
Punto de rocío 77 ° F
Humedad 62%
Precipitaciones 0.00 pul
Espesor de la nieve No disponible.
UV 9 de una escala de 12
Polen No disponible.
Calidad del aire No disponible.
Flu Activity No disponible.
METAR KBRO 011753Z 13013KT 10SM SCT032 SCT070 33/25 A2991 RMK AO2 SLP125 60000 T03330250 10339 20261 58002 $

More Conditions Fewer Conditions

10-Day Weather Forecast

Almanac

Astronomía

Sep. 01, 2014 Salida Puesta
Hora real 7:10 AM CDT 7:49 PM CDT
Crepúsculo civil 6:47 AM CDT 8:12 PM CDT
Crepúsculo náutico 6:19 AM CDT 8:40 PM CDT
Crepúsculo astronómico 5:51 AM CDT 9:07 PM CDT
Luna 1:18 PM CDT Sin puesta de luna
Horas de luz 13h 25m
Horas de luz
12h 38m
Tomorrow will be 1m 27s shorter.
Creciente, 43% of the Moon is Illuminated
Hoy
Creciente
Sep 2
Cuarto creciente
Sep 8
Luna llena
Sep 15
Cuarto menguante
Sep 24
Nueva

Extremos de hoy

Máximos del país Bajas del país

Community

WunderPhotos

Upload Photos

1,749,350 ¡fotos cargadas!

Nearby

Calidad del aire

Not available.

Grosos de nieve

Not available.

Actividad de terremotos

Ciudad Distance Mag. Tiempo y dato
No hay informes recientes de la actividad sísmica.
Magnitud mínima muestra es 2,5.

Temperaturas de aguas costeras

Lugar Temperatura
Sin partes meteorológicos de las estaciones

Estaciones meteorológicas cercanas